Página principal
METAR-TAF:

Aeroportos :

Cambridge, Inglaterra

latitude: 52-12N, longitude: 000-11E, altura: 15 m

Observação actual do tempo

O boletim foi feito há 16 minutos, às 13:20 UTC
Vento 14 kt de nor-nordeste, variando entre norte e nordeste
Temperatura 15°C
Humidade 55%
Pressão 1021 hPa
Visibilidade 10 km ou mais
Nuvens dispersasa uma altura de 3500 ft

METAR: EGSC 241320Z 02014KT 350V050 9999 SCT035 15/06 Q1021

Hora: 14:36 (13:36 UTC)

Previsão

O boletim foi feito há 2 horas e 39 minutos, às 10:57 UTC
Previsão válida de 24 às 12 UTC a 24 às 19 UTC
Vento 14 kt de nor-nordeste
Visibilidade 10 km ou mais
Nuvens dispersasa uma altura de 3500 ft

TAF: EGSC 241057Z 2412/2419 02014KT 9999 SCT035

METAR-TAF

Observações e previsões do tempo de mais de 4000 aeroportos (mensagens METAR e TAF).

As estações disponíveis são os pontos amarelos e vermelhos sobre o mapa.

Mova o rato sobre o mapa para ver o nome da estação.

Depois clique no ponto para visualizar as observações e previsões meteorológicas.

Para alterar o mapa : clique nos botões verdes com uma cruz preta para aumentar o zoom; no botão verde com uma pitada de zoom; ou nas setas verdes para mapas adjacentes.


METAR-TAF: